createdAt,value
2019-05-12T00:02:07.696Z,2.80
2019-05-12T00:04:40.561Z,2.80
2019-05-12T00:07:12.918Z,3.27
2019-05-12T00:09:44.789Z,2.33
2019-05-12T00:12:18.422Z,2.60
2019-05-12T00:14:50.383Z,2.23
2019-05-12T00:17:22.315Z,4.97
2019-05-12T00:19:54.616Z,5.37
2019-05-12T00:22:43.479Z,2.20
2019-05-12T00:25:17.923Z,4.17
2019-05-12T00:27:49.095Z,2.70
2019-05-12T00:30:52.124Z,3.83
2019-05-12T00:33:23.925Z,3.20
2019-05-12T00:35:58.566Z,2.90
2019-05-12T00:38:30.310Z,3.00
2019-05-12T00:41:02.259Z,3.83
2019-05-12T00:43:34.119Z,4.03
2019-05-12T00:46:07.876Z,2.23
2019-05-12T00:48:39.569Z,3.63
2019-05-12T00:51:11.426Z,4.20
2019-05-12T00:53:43.572Z,4.10
2019-05-12T00:56:17.734Z,3.13
2019-05-12T00:58:49.867Z,2.97
2019-05-12T01:01:21.663Z,2.90
2019-05-12T01:03:53.532Z,4.10
2019-05-12T01:06:25.432Z,2.93
2019-05-12T01:08:57.919Z,2.77
2019-05-12T01:11:30.389Z,3.80
2019-05-12T01:14:02.262Z,2.80
2019-05-12T01:16:34.134Z,3.30
2019-05-12T01:19:07.933Z,2.90
2019-05-12T01:21:40.853Z,3.17
2019-05-12T01:24:12.674Z,2.53
2019-05-12T01:26:44.499Z,2.03
2019-05-12T01:29:17.644Z,3.43
2019-05-12T01:31:56.052Z,3.17
2019-05-12T01:34:27.956Z,5.93
2019-05-12T01:37:18.998Z,2.07
2019-05-12T01:39:50.887Z,3.40
2019-05-12T01:42:22.968Z,3.13
2019-05-12T01:44:54.888Z,2.63
2019-05-12T01:47:29.127Z,2.47
2019-05-12T01:50:01.024Z,2.00
2019-05-12T01:52:33.850Z,2.23
2019-05-12T01:55:08.178Z,2.07
2019-05-12T01:57:40.243Z,4.43
2019-05-12T02:00:13.330Z,2.93
2019-05-12T02:02:45.222Z,4.67
2019-05-12T02:05:18.302Z,2.90
2019-05-12T02:07:58.314Z,3.07
2019-05-12T02:10:30.411Z,2.50
2019-05-12T02:13:02.237Z,4.30
2019-05-12T02:15:34.493Z,2.57
2019-05-12T02:18:08.782Z,2.90
2019-05-12T02:20:39.839Z,2.07
2019-05-12T02:23:12.151Z,3.37
2019-05-12T02:25:44.477Z,2.13
2019-05-12T02:28:18.001Z,3.40
2019-05-12T02:30:51.834Z,1.93
2019-05-12T02:33:24.421Z,2.27
2019-05-12T02:35:56.416Z,2.60
2019-05-12T02:38:28.541Z,2.50
2019-05-12T02:41:01.051Z,3.37
2019-05-12T02:43:34.844Z,3.13
2019-05-12T02:46:07.993Z,2.57
2019-05-12T02:48:39.936Z,1.60
2019-05-12T02:51:15.528Z,3.17
2019-05-12T02:53:49.130Z,2.47
2019-05-12T02:56:25.755Z,1.60
2019-05-12T02:58:57.554Z,2.63
2019-05-12T03:01:34.570Z,2.37
2019-05-12T03:04:06.221Z,4.03
2019-05-12T03:06:41.022Z,2.27
2019-05-12T03:09:15.150Z,4.03
2019-05-12T03:11:47.318Z,3.03
2019-05-12T03:14:19.108Z,3.27
2019-05-12T03:16:53.880Z,3.63
2019-05-12T03:19:25.338Z,1.60
2019-05-12T03:21:57.321Z,1.47
2019-05-12T03:24:29.227Z,2.67
2019-05-12T03:27:04.134Z,2.87
2019-05-12T03:29:34.645Z,2.97
2019-05-12T03:32:08.507Z,2.50
2019-05-12T03:34:40.436Z,2.67
2019-05-12T03:37:17.207Z,1.93
2019-05-12T03:39:54.004Z,1.87
2019-05-12T03:42:25.439Z,2.73
2019-05-12T03:44:57.549Z,4.17
2019-05-12T03:47:29.331Z,1.90
2019-05-12T03:50:05.020Z,2.43
2019-05-12T03:52:36.959Z,1.47
2019-05-12T03:55:27.345Z,2.47
2019-05-12T03:57:45.136Z,2.13
2019-05-12T04:00:17.955Z,2.20
2019-05-12T04:02:50.264Z,2.53
2019-05-12T04:05:24.373Z,2.07
2019-05-12T04:07:55.674Z,1.80
2019-05-12T04:10:27.536Z,2.40
2019-05-12T04:12:59.515Z,2.43
2019-05-12T04:15:34.307Z,2.63
2019-05-12T04:18:05.847Z,2.07
2019-05-12T04:20:38.205Z,2.00
2019-05-12T04:23:10.128Z,3.10
2019-05-12T04:25:51.929Z,2.53
2019-05-12T04:28:17.266Z,2.60
2019-05-12T04:30:49.097Z,2.30
2019-05-12T04:33:20.935Z,1.90
2019-05-12T04:35:56.759Z,3.83
2019-05-12T04:38:40.760Z,1.70
2019-05-12T04:41:26.127Z,3.60
2019-05-12T04:44:01.517Z,2.90
2019-05-12T04:46:34.628Z,1.73
2019-05-12T04:49:06.736Z,3.03
2019-05-12T04:51:38.745Z,2.33
2019-05-12T04:54:10.600Z,4.50
2019-05-12T04:56:44.622Z,3.90
2019-05-12T04:59:17.580Z,1.50
2019-05-12T05:01:49.481Z,3.83
2019-05-12T05:04:23.638Z,3.37
2019-05-12T05:06:55.137Z,3.60
2019-05-12T05:09:27.093Z,4.20
2019-05-12T05:11:58.989Z,2.70
2019-05-12T05:14:33.857Z,3.57
2019-05-12T05:17:05.808Z,2.97
2019-05-12T05:19:38.070Z,3.63
2019-05-12T05:22:09.803Z,5.40
2019-05-12T05:24:44.269Z,2.33
2019-05-12T05:27:16.041Z,2.93
2019-05-12T05:29:47.851Z,2.83
2019-05-12T05:32:19.718Z,2.77
2019-05-12T05:34:55.793Z,5.07
2019-05-12T05:37:25.208Z,3.20
2019-05-12T05:39:57.144Z,3.47
2019-05-12T05:42:32.918Z,3.53
2019-05-12T05:45:04.852Z,5.83
2019-05-12T05:47:37.661Z,2.80
2019-05-12T05:50:09.840Z,4.77
2019-05-12T05:52:43.769Z,5.93
2019-05-12T05:55:20.191Z,4.03
2019-05-12T05:57:50.413Z,4.77
2019-05-12T06:00:37.113Z,3.47
2019-05-12T06:03:17.044Z,3.03
2019-05-12T06:05:43.324Z,3.97
2019-05-12T06:08:20.640Z,5.90
2019-05-12T06:10:49.263Z,5.77
2019-05-12T06:13:26.267Z,4.53
2019-05-12T06:15:58.900Z,3.30
2019-05-12T06:18:34.102Z,6.50
2019-05-12T06:21:06.356Z,4.30
2019-05-12T06:23:39.244Z,8.40
2019-05-12T06:26:13.813Z,8.13
2019-05-12T06:28:44.943Z,6.17
2019-05-12T06:31:18.856Z,7.00
2019-05-12T06:33:53.634Z,6.80
2019-05-12T06:36:27.364Z,5.63
2019-05-12T06:38:58.627Z,9.73
2019-05-12T06:41:30.418Z,7.70
2019-05-12T06:44:03.736Z,9.10
2019-05-12T06:46:35.864Z,6.57
2019-05-12T06:49:12.635Z,8.53
2019-05-12T06:51:44.318Z,6.53
2019-05-12T06:54:15.350Z,8.10
2019-05-12T06:56:50.169Z,9.53
2019-05-12T06:59:23.744Z,8.50
2019-05-12T07:02:03.426Z,7.70
2019-05-12T07:04:41.314Z,9.17
2019-05-12T07:07:19.756Z,8.83
2019-05-12T07:09:54.972Z,9.53
2019-05-12T07:12:32.650Z,7.80
2019-05-12T07:15:00.002Z,8.67
2019-05-12T07:17:43.643Z,8.83
2019-05-12T07:20:14.821Z,7.90
2019-05-12T07:22:48.607Z,7.73
2019-05-12T07:25:22.914Z,9.17
2019-05-12T07:28:11.324Z,8.23
2019-05-12T07:30:44.309Z,10.07
2019-05-12T07:33:16.147Z,8.83
2019-05-12T07:35:53.268Z,17.10
2019-05-12T07:38:27.105Z,8.20
2019-05-12T07:41:00.641Z,7.43
2019-05-12T07:43:34.354Z,6.93
2019-05-12T07:46:07.408Z,6.80
2019-05-12T07:48:40.268Z,7.00
2019-05-12T07:51:13.917Z,6.40
2019-05-12T07:53:54.587Z,6.23
2019-05-12T07:56:25.795Z,8.77
2019-05-12T07:58:56.608Z,6.43
2019-05-12T08:01:28.376Z,9.63
2019-05-12T08:04:01.467Z,10.10
2019-05-12T08:06:41.445Z,8.23
2019-05-12T08:09:08.187Z,9.10
2019-05-12T08:11:43.250Z,5.63
2019-05-12T08:14:25.071Z,6.40
2019-05-12T08:16:48.052Z,9.13
2019-05-12T08:19:24.026Z,9.10
2019-05-12T08:21:54.661Z,6.17
2019-05-12T08:24:26.512Z,8.53
2019-05-12T08:27:05.700Z,6.50
2019-05-12T08:29:34.272Z,6.37
2019-05-12T08:32:09.923Z,5.73
2019-05-12T08:34:40.402Z,7.40
2019-05-12T08:37:13.929Z,7.47
2019-05-12T08:39:46.240Z,5.50
2019-05-12T08:42:18.576Z,7.53
2019-05-12T08:44:50.846Z,5.93
2019-05-12T08:47:23.895Z,7.60
2019-05-12T08:49:58.617Z,6.20
2019-05-12T08:52:30.477Z,5.83
2019-05-12T08:55:04.301Z,6.00
2019-05-12T08:57:40.860Z,7.50
2019-05-12T09:00:13.489Z,7.67
2019-05-12T09:02:50.411Z,5.43
2019-05-12T09:05:19.315Z,6.67
2019-05-12T09:07:54.066Z,6.07
2019-05-12T09:10:26.073Z,7.90
2019-05-12T09:12:58.053Z,7.80
2019-05-12T09:15:29.961Z,6.03
2019-05-12T09:18:04.382Z,4.47
2019-05-12T09:20:39.434Z,5.23
2019-05-12T09:23:09.866Z,7.03
2019-05-12T09:25:45.304Z,9.10
2019-05-12T09:28:18.606Z,6.30
2019-05-12T09:30:51.423Z,4.30
2019-05-12T09:33:29.596Z,3.93
2019-05-12T09:35:58.371Z,5.00
2019-05-12T09:38:30.243Z,4.13
2019-05-12T09:41:04.783Z,5.50
2019-05-12T09:43:40.306Z,6.93
2019-05-12T09:46:10.328Z,6.13
2019-05-12T09:48:46.965Z,5.87
2019-05-12T09:51:17.347Z,5.57
2019-05-12T09:53:51.098Z,5.83
2019-05-12T09:56:24.106Z,5.43
2019-05-12T09:59:01.441Z,4.83
2019-05-12T10:01:35.222Z,4.70
2019-05-12T10:04:03.935Z,6.60
2019-05-12T10:06:35.842Z,6.13
2019-05-12T10:09:14.166Z,7.13
2019-05-12T10:11:44.548Z,4.23
2019-05-12T10:14:17.844Z,6.40
2019-05-12T10:16:49.971Z,6.40
2019-05-12T10:19:25.293Z,5.20
2019-05-12T10:21:59.654Z,6.30
2019-05-12T10:24:40.620Z,6.20
2019-05-12T10:27:06.075Z,4.67
2019-05-12T10:29:37.962Z,6.07
2019-05-12T10:32:10.532Z,4.40
2019-05-12T10:34:44.365Z,4.80
2019-05-12T10:37:19.262Z,3.90
2019-05-12T10:39:50.330Z,5.33
2019-05-12T10:42:24.335Z,2.90
2019-05-12T10:44:56.754Z,4.77
2019-05-12T10:47:30.324Z,3.93
2019-05-12T10:50:02.356Z,3.53
2019-05-12T10:52:37.461Z,4.60
2019-05-12T10:55:08.706Z,4.97
2019-05-12T10:57:40.513Z,4.37
2019-05-12T11:00:19.876Z,4.13
2019-05-12T11:02:48.982Z,3.83
2019-05-12T11:05:25.481Z,3.50
2019-05-12T11:07:55.247Z,3.57
2019-05-12T11:10:27.554Z,4.90
2019-05-12T11:13:05.881Z,6.77
2019-05-12T11:15:34.517Z,5.03
2019-05-12T11:18:20.577Z,4.00
2019-05-12T11:20:49.990Z,4.73
2019-05-12T11:23:24.250Z,5.13
2019-05-12T11:25:55.421Z,5.03
2019-05-12T11:28:27.693Z,6.03
2019-05-12T11:31:00.928Z,3.30
2019-05-12T11:33:34.728Z,3.93
2019-05-12T11:36:06.640Z,5.43
2019-05-12T11:38:44.770Z,3.87
2019-05-12T11:41:20.242Z,3.57
2019-05-12T11:44:06.468Z,8.13
2019-05-12T11:46:39.886Z,3.30
2019-05-12T11:49:15.554Z,2.63
2019-05-12T11:51:49.312Z,4.17
2019-05-12T11:54:27.988Z,4.20
2019-05-12T11:56:59.422Z,5.53
2019-05-12T11:59:34.245Z,4.43
2019-05-12T12:02:07.581Z,5.50
2019-05-12T12:04:46.734Z,4.27
2019-05-12T12:07:19.129Z,3.97
2019-05-12T12:09:56.137Z,5.43
2019-05-12T12:12:24.467Z,5.50
2019-05-12T12:15:04.167Z,3.90
2019-05-12T12:17:37.454Z,4.40
2019-05-12T12:20:13.957Z,2.23
2019-05-12T12:22:47.002Z,3.13
2019-05-12T12:25:24.015Z,3.30
2019-05-12T12:27:57.143Z,2.30
2019-05-12T12:30:29.414Z,2.67
2019-05-12T12:33:14.121Z,2.90
2019-05-12T12:35:45.168Z,2.63
2019-05-12T12:38:21.531Z,3.30
2019-05-12T12:40:54.150Z,2.73
2019-05-12T12:43:26.021Z,2.33
2019-05-12T12:46:16.275Z,2.90
2019-05-12T12:48:43.980Z,3.30
2019-05-12T12:51:17.605Z,3.80
2019-05-12T12:53:57.043Z,2.83
2019-05-12T12:56:30.215Z,5.40
2019-05-12T12:59:10.116Z,3.97
2019-05-12T13:01:39.775Z,2.77
2019-05-12T13:04:13.228Z,3.10
2019-05-12T13:06:45.262Z,4.07
2019-05-12T13:09:24.283Z,3.60
2019-05-12T13:11:50.623Z,2.27
2019-05-12T13:14:23.433Z,3.00
2019-05-12T13:16:56.338Z,2.70
2019-05-12T13:19:28.840Z,2.70
2019-05-12T13:22:01.071Z,4.37
2019-05-12T13:24:33.618Z,3.40
2019-05-12T13:27:05.397Z,2.47
2019-05-12T13:29:39.751Z,2.27
2019-05-12T13:32:10.832Z,2.00
2019-05-12T13:34:43.142Z,2.03
2019-05-12T13:37:19.330Z,2.23
2019-05-12T13:39:55.884Z,2.17
2019-05-12T13:42:24.158Z,1.57
2019-05-12T13:44:55.739Z,3.87
2019-05-12T13:47:29.122Z,2.13
2019-05-12T13:50:04.028Z,2.13
2019-05-12T13:52:36.347Z,2.03
2019-05-12T13:55:08.879Z,2.13
2019-05-12T13:57:43.933Z,2.07
2019-05-12T14:00:15.454Z,1.53
2019-05-12T14:02:48.933Z,3.23
2019-05-12T14:05:24.761Z,1.37
2019-05-12T14:07:57.457Z,1.43
2019-05-12T14:10:29.933Z,3.23
2019-05-12T14:13:03.525Z,2.13
2019-05-12T14:15:36.254Z,1.90
2019-05-12T14:18:10.451Z,3.37
2019-05-12T14:20:44.907Z,2.90
2019-05-12T14:23:16.076Z,1.43
2019-05-12T14:25:48.700Z,4.57
2019-05-12T14:28:23.243Z,2.60
2019-05-12T14:30:54.687Z,2.13
2019-05-12T14:33:29.829Z,1.40
2019-05-12T14:36:00.483Z,1.53
2019-05-12T14:38:33.818Z,1.50
2019-05-12T14:41:10.377Z,3.07
2019-05-12T14:43:39.677Z,1.50
2019-05-12T14:46:13.336Z,2.30
2019-05-12T14:48:49.073Z,1.50
2019-05-12T14:51:19.823Z,1.87
2019-05-12T14:53:53.533Z,2.43
2019-05-12T14:56:26.419Z,1.60
2019-05-12T14:59:00.656Z,2.73
2019-05-12T15:01:44.163Z,2.70
2019-05-12T15:04:05.296Z,3.57
2019-05-12T15:06:38.638Z,2.57
2019-05-12T15:09:11.594Z,1.27
2019-05-12T15:11:44.734Z,2.10
2019-05-12T15:14:16.617Z,3.13
2019-05-12T15:16:48.990Z,2.10
2019-05-12T15:19:25.879Z,3.27
2019-05-12T15:21:55.263Z,2.77
2019-05-12T15:24:27.064Z,3.63
2019-05-12T15:27:00.851Z,1.93
2019-05-12T15:29:33.841Z,2.77
2019-05-12T15:32:07.144Z,2.03
2019-05-12T15:34:39.473Z,1.63
2019-05-12T15:37:11.762Z,2.80
2019-05-12T15:39:44.012Z,1.83
2019-05-12T15:42:17.638Z,2.40
2019-05-12T15:44:53.638Z,3.00
2019-05-12T15:47:29.643Z,1.50
2019-05-12T15:49:59.068Z,1.70
2019-05-12T15:52:38.231Z,3.00
2019-05-12T15:55:05.654Z,1.27
2019-05-12T15:57:37.582Z,2.13
2019-05-12T16:00:09.618Z,2.87
2019-05-12T16:02:44.276Z,1.90
2019-05-12T16:05:31.130Z,2.33
2019-05-12T16:08:03.753Z,1.43
2019-05-12T16:10:36.838Z,2.23
2019-05-12T16:13:08.726Z,2.43
2019-05-12T16:15:40.674Z,2.43
2019-05-12T16:18:14.454Z,3.53
2019-05-12T16:20:46.602Z,3.47
2019-05-12T16:23:28.045Z,1.57
2019-05-12T16:25:54.136Z,3.77
2019-05-12T16:28:33.918Z,2.33
2019-05-12T16:31:11.488Z,2.47
2019-05-12T16:33:43.691Z,1.87
2019-05-12T16:36:15.744Z,3.10
2019-05-12T16:38:50.155Z,1.83
2019-05-12T16:41:28.068Z,1.23
2019-05-12T16:43:55.125Z,2.77
2019-05-12T16:46:30.647Z,2.80
2019-05-12T16:49:03.312Z,1.87
2019-05-12T16:51:35.267Z,3.20
2019-05-12T16:54:07.226Z,1.90
2019-05-12T16:56:39.095Z,1.50
2019-05-12T16:59:16.983Z,1.80
2019-05-12T17:01:45.368Z,3.70
2019-05-12T17:04:17.397Z,1.67
2019-05-12T17:06:49.328Z,2.10
2019-05-12T17:09:23.908Z,2.03
2019-05-12T17:11:55.580Z,1.63
2019-05-12T17:14:28.699Z,1.43
2019-05-12T17:17:03.801Z,3.07
2019-05-12T17:19:36.220Z,2.07
2019-05-12T17:22:09.158Z,1.70
2019-05-12T17:24:41.614Z,1.70
2019-05-12T17:27:17.885Z,2.00
2019-05-12T17:29:48.043Z,1.57
2019-05-12T17:32:23.905Z,2.10
2019-05-12T17:35:10.051Z,1.93
2019-05-12T17:37:41.537Z,2.50
2019-05-12T17:40:18.342Z,2.20
2019-05-12T17:42:48.446Z,1.97
2019-05-12T17:45:20.650Z,1.33
2019-05-12T17:47:56.899Z,2.27
2019-05-12T17:50:26.702Z,1.50
2019-05-12T17:53:00.712Z,2.80
2019-05-12T17:55:33.155Z,1.07
2019-05-12T17:58:05.046Z,2.73
2019-05-12T18:00:41.499Z,1.83
2019-05-12T18:03:21.622Z,1.90
2019-05-12T18:05:48.026Z,1.47
2019-05-12T18:08:23.969Z,1.63
2019-05-12T18:10:54.704Z,2.73
2019-05-12T18:13:28.231Z,1.90
2019-05-12T18:16:03.580Z,2.60
2019-05-12T18:18:37.938Z,1.53
2019-05-12T18:21:13.199Z,2.33
2019-05-12T18:23:43.662Z,2.73
2019-05-12T18:26:16.499Z,2.43
2019-05-12T18:28:49.204Z,2.40
2019-05-12T18:31:21.075Z,2.83
2019-05-12T18:33:56.890Z,1.63
2019-05-12T18:36:28.080Z,2.40
2019-05-12T18:39:05.601Z,2.20
2019-05-12T18:41:34.825Z,2.17
2019-05-12T18:44:07.565Z,1.73
2019-05-12T18:46:44.991Z,2.30
2019-05-12T18:49:15.893Z,2.93
2019-05-12T18:51:49.144Z,1.87
2019-05-12T18:54:21.154Z,2.50
2019-05-12T18:57:02.598Z,1.47
2019-05-12T18:59:28.374Z,2.10
2019-05-12T19:02:06.742Z,1.93
2019-05-12T19:04:39.836Z,2.20
2019-05-12T19:07:15.303Z,2.43
2019-05-12T19:09:47.850Z,2.17
2019-05-12T19:12:22.669Z,2.30
2019-05-12T19:14:54.902Z,2.00
2019-05-12T19:17:27.714Z,1.47
2019-05-12T19:20:01.656Z,2.70
2019-05-12T19:22:33.789Z,2.77
2019-05-12T19:25:06.402Z,1.93
2019-05-12T19:27:38.335Z,3.03
2019-05-12T19:30:10.994Z,1.30
2019-05-12T19:32:44.966Z,3.53
2019-05-12T19:35:20.348Z,2.53
2019-05-12T19:37:53.600Z,2.00
2019-05-12T19:40:25.051Z,1.53
2019-05-12T19:43:03.376Z,2.57
2019-05-12T19:45:31.031Z,2.17
2019-05-12T19:48:04.162Z,2.77
2019-05-12T19:50:36.211Z,2.13
2019-05-12T19:53:10.341Z,2.30
2019-05-12T19:55:44.342Z,2.53
2019-05-12T19:58:16.079Z,4.03
2019-05-12T20:00:47.896Z,2.17
2019-05-12T20:03:19.653Z,2.33
2019-05-12T20:05:53.863Z,5.03
2019-05-12T20:08:25.753Z,3.27
2019-05-12T20:10:57.962Z,2.20
2019-05-12T20:13:36.067Z,1.70
2019-05-12T20:16:04.174Z,2.70
2019-05-12T20:18:42.955Z,2.70
2019-05-12T20:21:10.030Z,2.80
2019-05-12T20:23:43.765Z,2.13
2019-05-12T20:26:16.327Z,4.03
2019-05-12T20:28:50.606Z,2.97
2019-05-12T20:31:26.816Z,2.97
2019-05-12T20:34:04.292Z,2.13
2019-05-12T20:36:29.823Z,3.00
2019-05-12T20:39:09.431Z,3.20
2019-05-12T20:41:36.566Z,2.00
2019-05-12T20:44:09.732Z,3.33
2019-05-12T20:46:43.259Z,3.03
2019-05-12T20:49:15.669Z,3.07
2019-05-12T20:51:48.343Z,1.97
2019-05-12T20:54:20.385Z,3.67
2019-05-12T20:57:01.552Z,2.67
2019-05-12T20:59:28.138Z,4.73
2019-05-12T21:01:59.092Z,2.23
2019-05-12T21:04:37.475Z,3.27
2019-05-12T21:07:05.949Z,3.40
2019-05-12T21:09:37.749Z,2.63
2019-05-12T21:12:09.621Z,3.63
2019-05-12T21:14:51.169Z,2.67
2019-05-12T21:17:18.351Z,1.47
2019-05-12T21:19:56.896Z,1.70
2019-05-12T21:22:23.820Z,3.03
2019-05-12T21:24:56.227Z,2.93
2019-05-12T21:27:28.396Z,4.47
2019-05-12T21:30:10.020Z,2.93
2019-05-12T21:32:35.259Z,5.17
2019-05-12T21:35:18.166Z,2.97
2019-05-12T21:37:45.728Z,3.20
2019-05-12T21:40:15.145Z,2.50
2019-05-12T21:42:47.002Z,2.33
2019-05-12T21:45:20.349Z,3.57
2019-05-12T21:47:56.320Z,3.27
2019-05-12T21:50:32.556Z,4.20
2019-05-12T21:53:00.818Z,2.50
2019-05-12T21:55:33.980Z,2.67
2019-05-12T21:58:10.439Z,3.20
2019-05-12T22:00:44.964Z,2.80
2019-05-12T22:03:16.914Z,3.43
2019-05-12T22:05:53.006Z,2.33
2019-05-12T22:08:25.488Z,3.77
2019-05-12T22:11:00.940Z,3.20
2019-05-12T22:13:32.147Z,3.57
2019-05-12T22:16:04.039Z,2.37
2019-05-12T22:18:35.925Z,3.63
2019-05-12T22:21:08.260Z,3.23
2019-05-12T22:23:42.689Z,3.07
2019-05-12T22:26:14.047Z,2.80
2019-05-12T22:28:50.723Z,3.00
2019-05-12T22:31:20.572Z,3.30
2019-05-12T22:33:56.122Z,2.10
2019-05-12T22:36:29.813Z,2.63
2019-05-12T22:39:01.047Z,2.57
2019-05-12T22:41:41.109Z,3.03
2019-05-12T22:44:09.028Z,4.07
2019-05-12T22:46:43.434Z,1.97
2019-05-12T22:49:16.811Z,5.50
2019-05-12T22:51:54.628Z,2.57
2019-05-12T22:54:24.304Z,3.37
2019-05-12T22:56:56.989Z,3.17
2019-05-12T22:59:31.937Z,3.70
2019-05-12T23:02:04.598Z,3.03
2019-05-12T23:04:40.432Z,2.33
2019-05-12T23:07:10.795Z,2.47
2019-05-12T23:09:43.535Z,2.40
2019-05-12T23:12:19.895Z,3.67
2019-05-12T23:14:54.182Z,2.43
2019-05-12T23:17:24.615Z,4.33
2019-05-12T23:19:56.778Z,3.13
2019-05-12T23:22:29.480Z,3.43
2019-05-12T23:25:03.936Z,3.27
2019-05-12T23:27:36.006Z,3.63
2019-05-12T23:30:11.212Z,3.90
2019-05-12T23:32:51.112Z,3.00
2019-05-12T23:35:15.865Z,2.93
2019-05-12T23:37:48.306Z,2.53
2019-05-12T23:40:21.063Z,4.10
2019-05-12T23:42:53.638Z,4.13
2019-05-12T23:45:25.619Z,2.50
2019-05-12T23:47:57.516Z,4.27
2019-05-12T23:50:29.340Z,3.80
2019-05-12T23:53:03.519Z,3.80
2019-05-12T23:55:35.205Z,2.60
2019-05-12T23:58:07.472Z,2.23
